Time;durP1;ratioP1;P1;durP2;ratioP2;P2;SDS_P1;SDS_P2;PMS_P1;PMS_P2;Temp;Humidity;BMP_temperature;BMP_pressure;BME280_temperature;BME280_humidity;BME280_pressure;Samples;Min_cycle;Max_cycle;Signal;HPM_P1;HPM_P2
2024/03/21 00:00:17;;;;;;;19.10;13.93;;;12.00;99.90;;;;;;6137042;23;20017;-76
2024/03/21 00:02:46;;;;;;;17.00;13.77;;;12.00;99.90;;;;;;6167671;23;20013;-78
2024/03/21 00:05:14;;;;;;;17.83;13.65;;;12.00;99.90;;;;;;6174598;23;20009;-77
2024/03/21 00:07:46;;;;;;;20.20;14.68;;;12.00;99.90;;;;;;6122559;23;20001;-76
2024/03/21 00:10:16;;;;;;;20.92;15.07;;;11.90;99.90;;;;;;6110291;23;20020;-77
2024/03/21 00:12:43;;;;;;;19.00;14.27;;;11.90;99.90;;;;;;6087734;23;20009;-78
2024/03/21 00:15:10;;;;;;;20.88;14.68;;;11.90;99.90;;;;;;6174815;23;20004;-77
2024/03/21 00:17:37;;;;;;;23.48;16.38;;;11.90;99.90;;;;;;6148423;23;20013;-77
2024/03/21 00:20:09;;;;;;;21.55;14.95;;;11.90;99.90;;;;;;6120469;23;20009;-77
2024/03/21 00:22:40;;;;;;;20.10;15.25;;;11.80;99.90;;;;;;6136586;23;20013;-76
2024/03/21 00:25:08;;;;;;;18.90;14.65;;;11.80;99.90;;;;;;6088634;23;20020;-76
2024/03/21 00:27:36;;;;;;;19.55;13.95;;;11.80;99.90;;;;;;6113585;23;20013;-76
2024/03/21 00:30:07;;;;;;;17.98;12.80;;;11.80;99.90;;;;;;6112036;23;20009;-76
2024/03/21 00:32:34;;;;;;;17.92;12.50;;;11.80;99.90;;;;;;6122872;23;20005;-77
2024/03/21 00:35:00;;;;;;;18.85;13.63;;;11.80;99.90;;;;;;6113583;23;20013;-76
2024/03/21 00:37:27;;;;;;;19.08;13.93;;;11.70;99.90;;;;;;6174950;23;20013;-75
2024/03/21 00:39:54;;;;;;;18.70;13.40;;;11.80;99.90;;;;;;6122261;23;20485;-76
2024/03/21 00:42:22;;;;;;;20.77;14.90;;;11.70;99.90;;;;;;6174642;23;20001;-76
2024/03/21 00:44:48;;;;;;;23.25;15.52;;;11.80;99.90;;;;;;6112743;23;20568;-76
2024/03/21 00:47:15;;;;;;;19.45;14.43;;;11.70;99.90;;;;;;6147604;23;20008;-77
2024/03/21 00:49:41;;;;;;;22.35;16.20;;;11.70;99.90;;;;;;6135582;23;20413;-76
2024/03/21 00:52:07;;;;;;;23.52;17.67;;;11.70;99.90;;;;;;6147068;23;20012;-76
2024/03/21 00:54:34;;;;;;;27.83;20.45;;;11.70;99.90;;;;;;6173793;23;20001;-76
2024/03/21 00:57:00;;;;;;;31.13;22.55;;;11.70;99.90;;;;;;6136530;23;20450;-76
2024/03/21 00:59:27;;;;;;;34.67;23.52;;;11.70;99.90;;;;;;6136528;23;20021;-76
2024/03/21 01:01:54;;;;;;;27.40;19.25;;;11.60;99.90;;;;;;6119211;23;20470;-77
2024/03/21 01:04:20;;;;;;;25.45;19.50;;;11.60;99.90;;;;;;6146855;23;20005;-76
2024/03/21 01:06:46;;;;;;;41.75;28.33;;;11.70;99.90;;;;;;6112650;23;20016;-76
2024/03/21 01:09:14;;;;;;;40.03;28.30;;;11.70;99.90;;;;;;6136344;23;20112;-76
2024/03/21 01:11:42;;;;;;;36.28;26.50;;;11.70;99.90;;;;;;6113226;23;20095;-75
2024/03/21 01:14:08;;;;;;;35.22;25.83;;;11.70;99.90;;;;;;6112972;23;20016;-76
2024/03/21 01:16:35;;;;;;;39.47;29.38;;;11.70;99.90;;;;;;6173467;23;20017;-77
2024/03/21 01:19:02;;;;;;;36.25;25.05;;;11.70;99.90;;;;;;6173698;23;20008;-76
2024/03/21 01:21:29;;;;;;;33.83;25.02;;;11.60;99.90;;;;;;6112575;23;20009;-77
2024/03/21 01:23:56;;;;;;;38.80;27.17;;;11.60;99.90;;;;;;6110914;23;20016;-76
2024/03/21 01:26:22;;;;;;;35.45;24.75;;;11.60;99.90;;;;;;6110273;23;20048;-77
2024/03/21 01:28:48;;;;;;;38.10;25.75;;;11.60;99.90;;;;;;6119925;23;20005;-78
2024/03/21 01:31:15;;;;;;;30.90;23.10;;;11.60;99.90;;;;;;6146447;23;20009;-75
2024/03/21 01:33:42;;;;;;;29.17;21.60;;;11.50;99.90;;;;;;6146515;23;20009;-76
2024/03/21 01:36:09;;;;;;;26.35;18.48;;;11.50;99.90;;;;;;6113437;23;20586;-76
2024/03/21 01:38:37;;;;;;;26.50;19.63;;;11.50;99.90;;;;;;6111725;23;20009;-77
2024/03/21 01:41:05;;;;;;;26.10;18.38;;;11.50;99.90;;;;;;6121452;23;20012;-76
2024/03/21 01:43:32;;;;;;;22.23;16.95;;;11.50;99.90;;;;;;6135893;23;20017;-76
2024/03/21 01:46:16;;;;;;;28.30;20.48;;;11.50;99.90;;;;;;6144157;23;20020;-75
2024/03/21 01:48:47;;;;;;;25.58;17.83;;;11.40;99.90;;;;;;6170950;23;20005;-77
2024/03/21 01:51:17;;;;;;;24.73;17.98;;;11.40;99.90;;;;;;6108701;23;20009;-76
2024/03/21 01:53:45;;;;;;;23.83;16.92;;;11.40;99.90;;;;;;6144937;23;20009;-76
2024/03/21 01:56:12;;;;;;;23.88;17.75;;;11.40;99.90;;;;;;6119704;23;20725;-77
2024/03/21 01:58:38;;;;;;;22.27;16.45;;;11.40;99.90;;;;;;6109971;23;20024;-77
2024/03/21 02:01:21;;;;;;;23.20;17.38;;;11.40;99.90;;;;;;6170096;23;20756;-77
2024/03/21 02:03:50;;;;;;;;;;;11.30;99.90;;;;;;6146132;23;20005;-76
2024/03/21 02:06:16;;;;;;;22.15;15.63;;;11.30;99.90;;;;;;6173383;23;20221;-76
2024/03/21 02:08:42;;;;;;;24.48;17.58;;;11.20;99.90;;;;;;6162935;23;20012;-76
2024/03/21 02:11:09;;;;;;;23.50;17.98;;;11.20;99.90;;;;;;6136230;23;20005;-77
2024/03/21 02:13:35;;;;;;;23.95;18.25;;;11.20;99.90;;;;;;6146890;23;20001;-75
2024/03/21 02:16:01;;;;;;;21.98;16.83;;;11.20;99.90;;;;;;6110942;23;20816;-76
2024/03/21 02:18:28;;;;;;;21.40;15.80;;;11.20;99.90;;;;;;6147166;23;20001;-76
2024/03/21 02:20:54;;;;;;;22.77;17.10;;;11.20;99.90;;;;;;6145625;23;20012;-75
2024/03/21 02:23:20;;;;;;;22.35;15.73;;;11.20;99.90;;;;;;6136304;23;20013;-76
2024/03/21 02:25:48;;;;;;;24.60;16.15;;;11.10;99.90;;;;;;6162122;23;20008;-76
2024/03/21 02:28:14;;;;;;;23.75;18.05;;;11.10;99.90;;;;;;6113071;23;20009;-78
2024/03/21 02:30:44;;;;;;;25.20;18.08;;;11.10;99.90;;;;;;6136186;23;20019;-77
2024/03/21 02:33:10;;;;;;;33.08;22.60;;;11.10;99.90;;;;;;6090367;23;20386;-77
2024/03/21 02:35:36;;;;;;;25.67;19.20;;;11.10;99.90;;;;;;6114165;23;20008;-77
2024/03/21 02:38:03;;;;;;;40.40;24.15;;;11.10;99.90;;;;;;6149383;23;20314;-77
2024/03/21 02:40:29;;;;;;;32.13;22.98;;;11.10;99.90;;;;;;6138219;23;20432;-75
2024/03/21 02:42:56;;;;;;;33.42;25.40;;;11.20;99.90;;;;;;6113886;23;20004;-76
2024/03/21 02:45:22;;;;;;;31.15;22.95;;;11.20;99.90;;;;;;6174687;23;20397;-77
2024/03/21 02:47:48;;;;;;;36.13;24.30;;;11.20;99.90;;;;;;6149866;23;20179;-77
2024/03/21 02:50:15;;;;;;;34.83;24.75;;;11.20;99.90;;;;;;6147934;23;20008;-76
2024/03/21 02:52:41;;;;;;;32.42;23.17;;;11.20;99.90;;;;;;6113792;23;20036;-76
2024/03/21 02:55:08;;;;;;;28.63;21.45;;;11.20;99.90;;;;;;6174945;23;20005;-76
2024/03/21 02:57:34;;;;;;;32.40;24.65;;;11.20;99.90;;;;;;6115672;23;20024;-77
2024/03/21 03:00:00;;;;;;;34.90;24.95;;;11.20;99.90;;;;;;6173814;23;20008;-76
2024/03/21 03:02:28;;;;;;;32.78;22.92;;;11.30;99.90;;;;;;6143583;23;20294;-77
2024/03/21 03:04:54;;;;;;;32.45;25.15;;;11.30;99.90;;;;;;6148572;23;20009;-76
2024/03/21 03:07:20;;;;;;;33.08;25.17;;;11.30;99.90;;;;;;6175445;23;20594;-77
2024/03/21 03:09:47;;;;;;;26.98;21.30;;;11.20;99.90;;;;;;6113757;23;20001;-77
2024/03/21 03:12:13;;;;;;;38.10;26.08;;;11.30;99.90;;;;;;6148634;23;20342;-76
2024/03/21 03:14:39;;;;;;;32.75;22.90;;;11.20;99.90;;;;;;6174553;23;20006;-76
2024/03/21 03:17:06;;;;;;;35.05;25.23;;;11.30;99.90;;;;;;6090107;23;20500;-76
2024/03/21 03:19:32;;;;;;;32.90;24.27;;;11.20;99.90;;;;;;6146754;23;20049;-77
2024/03/21 03:21:58;;;;;;;33.42;24.52;;;11.20;99.90;;;;;;6148050;23;20020;-76
2024/03/21 03:24:24;;;;;;;33.72;23.90;;;11.20;99.90;;;;;;6112683;23;20009;-77
2024/03/21 03:26:51;;;;;;;32.55;22.42;;;11.20;99.90;;;;;;6138457;23;20016;-76
2024/03/21 03:29:17;;;;;;;28.10;21.40;;;11.20;99.90;;;;;;6111849;23;20464;-76
2024/03/21 03:31:43;;;;;;;30.25;20.75;;;11.20;99.90;;;;;;6147544;23;20001;-77
2024/03/21 03:36:55;;;;;;;27.02;19.88;;;11.00;99.90;;;;;;6173523;23;20005;-76
2024/03/21 03:39:22;;;;;;;27.58;20.63;;;10.90;99.90;;;;;;6173962;23;20001;-75
2024/03/21 03:41:49;;;;;;;27.05;18.67;;;10.80;99.90;;;;;;6088776;23;20334;-76
2024/03/21 03:44:15;;;;;;;30.80;23.08;;;10.70;99.90;;;;;;6147554;23;20421;-77
2024/03/21 03:46:42;;;;;;;34.80;24.08;;;10.60;99.90;;;;;;6123790;23;20422;-77
2024/03/21 03:49:08;;;;;;;34.15;23.73;;;10.60;99.90;;;;;;6089432;23;20040;-77
2024/03/21 03:51:35;;;;;;;37.22;28.35;;;10.60;99.90;;;;;;6137228;23;20008;-77
2024/03/21 03:54:01;;;;;;;36.97;27.10;;;10.60;99.90;;;;;;6113477;23;20013;-77
2024/03/21 03:56:27;;;;;;;28.15;21.88;;;10.60;99.90;;;;;;6174375;23;20016;-77
2024/03/21 03:58:54;;;;;;;35.22;25.02;;;10.50;99.90;;;;;;6113442;23;20005;-76
2024/03/21 04:01:20;;;;;;;32.00;23.50;;;10.50;99.90;;;;;;6146250;23;20001;-76
2024/03/21 04:03:46;;;;;;;34.45;27.20;;;10.60;99.90;;;;;;6174688;23;20005;-76
2024/03/21 04:06:14;;;;;;;33.95;25.80;;;10.60;99.90;;;;;;6137191;23;20234;-77
2024/03/21 04:08:40;;;;;;;37.92;27.40;;;10.60;99.90;;;;;;6174211;23;20005;-76
2024/03/21 04:11:14;;;;;;;31.08;24.83;;;10.60;99.90;;;;;;6146964;23;20001;-77
2024/03/21 04:13:40;;;;;;;30.42;24.05;;;10.70;99.90;;;;;;6112177;23;20308;-76
2024/03/21 04:16:18;;;;;;;23.27;18.70;;;10.70;99.90;;;;;;6088364;23;20012;-77
2024/03/21 04:18:44;;;;;;;32.00;22.80;;;10.70;99.90;;;;;;6146967;23;19997;-76
2024/03/21 04:21:11;;;;;;;37.20;25.23;;;10.80;99.90;;;;;;6172750;23;20414;-76
2024/03/21 04:23:37;;;;;;;34.45;25.05;;;10.80;99.90;;;;;;6137368;23;20001;-77
2024/03/21 04:26:04;;;;;;;29.90;22.48;;;10.80;99.90;;;;;;6136006;23;20009;-77
2024/03/21 04:28:30;;;;;;;25.08;18.35;;;10.80;99.90;;;;;;6146228;23;20440;-76
2024/03/21 04:30:56;;;;;;;28.73;22.20;;;10.80;99.90;;;;;;6112283;23;20016;-77
2024/03/21 04:33:23;;;;;;;29.35;20.48;;;10.90;99.90;;;;;;6175080;23;20404;-76
2024/03/21 04:35:49;;;;;;;23.15;17.88;;;10.90;99.90;;;;;;6122933;23;20012;-76
2024/03/21 04:38:16;;;;;;;25.50;18.08;;;10.90;99.90;;;;;;6147108;23;20008;-77
2024/03/21 04:40:42;;;;;;;24.50;17.67;;;10.90;99.90;;;;;;6111149;23;20028;-77
2024/03/21 04:43:08;;;;;;;17.55;14.93;;;10.90;99.90;;;;;;6173031;23;20001;-75
2024/03/21 04:45:35;;;;;;;17.52;13.63;;;10.90;99.90;;;;;;6173921;23;20005;-75
2024/03/21 04:48:01;;;;;;;17.05;12.63;;;10.90;99.90;;;;;;6133308;23;20012;-75
2024/03/21 04:50:28;;;;;;;9.65;7.75;;;10.80;99.90;;;;;;6136481;23;20061;-76
2024/03/21 04:52:54;;;;;;;7.60;6.47;;;10.70;99.90;;;;;;6173251;23;20005;-75
2024/03/21 04:55:21;;;;;;;6.22;4.50;;;10.70;99.90;;;;;;6145456;23;20001;-75
2024/03/21 04:57:47;;;;;;;7.13;4.07;;;10.60;99.90;;;;;;6112625;23;20013;-76
2024/03/21 05:00:13;;;;;;;6.88;4.65;;;10.50;99.90;;;;;;6086619;23;20177;-75
2024/03/21 05:02:40;;;;;;;6.10;4.45;;;10.40;99.90;;;;;;6139570;23;20009;-76
2024/03/21 05:05:07;;;;;;;4.72;4.03;;;10.20;99.90;;;;;;6086945;23;20446;-75
2024/03/21 05:07:34;;;;;;;5.30;3.22;;;10.10;99.90;;;;;;6088537;23;20438;-76
2024/03/21 05:10:01;;;;;;;5.15;3.53;;;10.10;99.90;;;;;;6110468;23;20493;-75
2024/03/21 05:12:28;;;;;;;5.35;3.45;;;10.00;99.90;;;;;;6135340;23;20368;-75
2024/03/21 05:14:54;;;;;;;4.43;3.17;;;10.00;99.90;;;;;;6121793;23;20005;-75
2024/03/21 05:17:21;;;;;;;3.22;2.83;;;10.00;99.90;;;;;;6145878;23;20329;-76
2024/03/21 05:19:47;;;;;;;4.25;3.50;;;10.00;99.90;;;;;;6109231;23;20012;-78
2024/03/21 05:22:15;;;;;;;3.97;3.60;;;9.90;99.90;;;;;;6171735;23;20009;-77
2024/03/21 05:24:42;;;;;;;2.90;2.50;;;9.80;99.90;;;;;;6171774;23;20001;-75
2024/03/21 05:27:09;;;;;;;4.13;3.17;;;9.80;99.90;;;;;;6135271;23;20001;-77
2024/03/21 05:29:36;;;;;;;4.07;3.17;;;9.80;99.90;;;;;;6140243;23;19997;-75
2024/03/21 05:32:02;;;;;;;4.15;3.00;;;9.80;99.90;;;;;;6146259;23;20625;-77
2024/03/21 05:34:29;;;;;;;5.03;3.63;;;9.80;99.90;;;;;;6111679;23;20434;-77
2024/03/21 05:36:56;;;;;;;6.05;3.72;;;9.80;99.90;;;;;;6111766;23;20445;-77
2024/03/21 05:39:22;;;;;;;4.20;3.78;;;9.80;99.90;;;;;;6112295;23;20322;-75
2024/03/21 05:41:48;;;;;;;4.50;4.10;;;9.80;99.90;;;;;;6173473;23;20519;-76
2024/03/21 05:44:15;;;;;;;6.00;4.43;;;9.80;99.90;;;;;;6147519;23;20001;-76
2024/03/21 05:46:41;;;;;;;6.40;4.30;;;9.90;99.90;;;;;;6145991;23;20460;-77
2024/03/21 05:49:10;;;;;;;5.55;4.53;;;9.90;99.90;;;;;;6122460;23;20379;-77
2024/03/21 05:51:36;;;;;;;4.38;3.97;;;9.90;99.90;;;;;;6121663;23;20005;-77
2024/03/21 05:54:05;;;;;;;5.13;4.43;;;9.90;99.90;;;;;;6147576;23;20004;-76
2024/03/21 05:56:32;;;;;;;8.30;6.97;;;10.00;99.90;;;;;;6147010;23;20009;-76
2024/03/21 05:58:58;;;;;;;8.68;7.78;;;10.00;99.90;;;;;;6087598;23;20001;-76
2024/03/21 06:01:32;;;;;;;10.20;8.52;;;10.00;99.90;;;;;;6171500;23;20005;-76
2024/03/21 06:03:59;;;;;;;9.65;8.13;;;9.90;99.90;;;;;;6172729;23;20001;-75
2024/03/21 06:06:26;;;;;;;9.48;7.60;;;9.90;99.90;;;;;;6112038;23;20038;-77
2024/03/21 06:08:52;;;;;;;9.10;6.40;;;9.90;99.90;;;;;;6114792;23;20322;-77
2024/03/21 06:11:19;;;;;;;8.15;4.72;;;9.90;99.90;;;;;;6149216;23;20388;-77
2024/03/21 06:13:45;;;;;;;6.78;3.67;;;9.80;99.90;;;;;;6174903;23;20422;-76
2024/03/21 06:16:11;;;;;;;6.50;3.22;;;9.80;99.90;;;;;;6090495;23;20005;-76
2024/03/21 06:18:38;;;;;;;7.10;2.55;;;9.70;99.90;;;;;;6149563;23;20020;-76
2024/03/21 06:21:04;;;;;;;5.05;2.20;;;9.70;99.90;;;;;;6174205;23;20517;-77
2024/03/21 06:23:31;;;;;;;4.13;2.10;;;9.70;99.90;;;;;;6149129;23;20008;-77
2024/03/21 06:25:57;;;;;;;5.28;1.17;;;9.60;99.90;;;;;;6175294;23;20028;-76
2024/03/21 06:28:23;;;;;;;4.13;1.48;;;9.60;99.90;;;;;;6114475;23;20005;-77
2024/03/21 06:30:50;;;;;;;9.10;1.73;;;9.60;99.90;;;;;;6113685;23;20013;-76
2024/03/21 06:33:16;;;;;;;5.43;1.33;;;9.70;99.90;;;;;;6114549;23;20430;-77
2024/03/21 06:35:42;;;;;;;5.10;1.10;;;9.60;99.90;;;;;;6149062;23;20012;-76
2024/03/21 06:38:09;;;;;;;8.13;1.33;;;9.60;99.90;;;;;;6138408;23;20438;-76
2024/03/21 06:40:35;;;;;;;2.78;0.88;;;9.60;99.90;;;;;;6089217;23;20052;-78
2024/03/21 06:43:02;;;;;;;2.53;0.60;;;9.60;99.90;;;;;;6112834;23;20059;-78
2024/03/21 06:45:28;;;;;;;5.20;0.70;;;9.60;99.90;;;;;;6113571;23;20012;-78
2024/03/21 06:47:56;;;;;;;6.25;1.50;;;9.60;99.90;;;;;;6148830;23;20031;-76
2024/03/21 06:50:22;;;;;;;5.00;0.85;;;9.60;99.90;;;;;;6147309;23;20001;-77
2024/03/21 06:52:49;;;;;;;1.88;0.50;;;9.60;99.90;;;;;;6173669;23;20288;-77
2024/03/21 06:55:17;;;;;;;4.30;1.20;;;9.60;99.90;;;;;;6122620;23;20001;-77
2024/03/21 06:57:49;;;;;;;3.50;0.60;;;9.60;99.90;;;;;;6137993;23;20005;-77
2024/03/21 07:00:19;;;;;;;4.40;0.60;;;9.60;99.90;;;;;;6174025;23;20001;-77
2024/03/21 07:02:45;;;;;;;3.65;0.60;;;9.70;99.90;;;;;;6141417;23;20432;-76
2024/03/21 07:05:12;;;;;;;3.60;0.50;;;9.80;99.90;;;;;;6148529;23;19997;-77
2024/03/21 07:07:38;;;;;;;3.75;0.50;;;9.70;99.90;;;;;;6141482;23;20504;-76
2024/03/21 07:10:05;;;;;;;5.75;0.60;;;9.70;99.90;;;;;;6090636;23;20016;-75
2024/03/21 07:12:31;;;;;;;3.90;0.60;;;9.80;99.90;;;;;;6115992;23;20005;-76
2024/03/21 07:14:58;;;;;;;3.95;0.57;;;9.80;99.90;;;;;;6125694;23;20506;-76
2024/03/21 07:17:25;;;;;;;5.60;1.08;;;9.80;99.90;;;;;;6139669;23;20016;-75
2024/03/21 07:19:51;;;;;;;8.10;2.47;;;9.80;99.90;;;;;;6090631;23;20009;-77
2024/03/21 07:22:18;;;;;;;5.53;1.05;;;9.80;99.90;;;;;;6177565;23;19997;-77
2024/03/21 07:24:44;;;;;;;6.68;1.83;;;9.80;99.90;;;;;;6090534;23;20032;-80
2024/03/21 07:27:10;;;;;;;9.05;1.30;;;9.80;99.90;;;;;;6090584;23;20020;-78
2024/03/21 07:29:36;;;;;;;5.60;0.98;;;9.80;99.90;;;;;;6113172;23;20005;-77
2024/03/21 07:32:07;;;;;;;5.47;0.70;;;9.90;99.90;;;;;;6138700;23;20044;-75
2024/03/21 07:34:34;;;;;;;4.75;0.82;;;9.90;99.90;;;;;;6150540;23;20019;-77
2024/03/21 07:37:02;;;;;;;4.78;0.90;;;9.90;99.90;;;;;;6125821;23;20536;-78
2024/03/21 07:39:31;;;;;;;5.00;0.60;;;10.00;99.90;;;;;;6149987;23;20265;-77
2024/03/21 07:41:59;;;;;;;5.35;0.80;;;10.10;99.90;;;;;;6174019;23;20004;-77
2024/03/21 07:44:26;;;;;;;3.33;0.50;;;10.10;99.90;;;;;;6114021;23;20017;-78
2024/03/21 07:46:53;;;;;;;6.13;0.70;;;10.10;99.90;;;;;;6176591;23;20399;-77
2024/03/21 07:49:19;;;;;;;4.72;0.50;;;10.10;99.90;;;;;;6139034;23;20476;-78
2024/03/21 07:51:47;;;;;;;2.65;0.40;;;10.20;99.90;;;;;;6113001;23;20009;-76
2024/03/21 07:54:14;;;;;;;5.53;0.60;;;10.20;99.90;;;;;;6091028;23;20009;-76
2024/03/21 07:56:40;;;;;;;6.43;0.88;;;10.20;99.90;;;;;;6150382;23;20457;-79
2024/03/21 07:59:07;;;;;;;3.58;0.50;;;10.30;99.90;;;;;;6139442;23;20017;-79
2024/03/21 08:01:34;;;;;;;9.30;2.10;;;10.40;99.90;;;;;;6147986;23;20013;-78
2024/03/21 08:04:06;;;;;;;5.72;0.93;;;10.40;99.90;;;;;;6150167;23;20005;-78
2024/03/21 08:06:32;;;;;;;8.00;1.60;;;10.50;99.90;;;;;;6114665;23;20013;-78
2024/03/21 08:08:58;;;;;;;9.35;1.00;;;10.60;99.90;;;;;;6089951;23;20009;-78
2024/03/21 08:11:25;;;;;;;4.80;0.70;;;10.60;99.90;;;;;;6148469;23;20104;-79
2024/03/21 08:13:51;;;;;;;4.80;0.55;;;10.60;99.90;;;;;;6175258;23;20005;-77
2024/03/21 08:16:18;;;;;;;3.88;0.57;;;10.70;99.90;;;;;;6148623;23;20017;-76
2024/03/21 08:18:46;;;;;;;7.05;1.10;;;10.80;99.90;;;;;;6089945;23;20013;-77
2024/03/21 08:21:14;;;;;;;8.38;1.20;;;10.80;99.90;;;;;;6123002;23;20269;-79
2024/03/21 08:23:41;;;;;;;3.65;0.60;;;10.90;99.90;;;;;;6115297;23;20327;-79
2024/03/21 08:26:07;;;;;;;6.25;0.60;;;11.00;99.90;;;;;;6092117;23;20039;-78
2024/03/21 08:28:34;;;;;;;4.75;0.70;;;11.10;99.90;;;;;;6115908;23;20013;-78
2024/03/21 08:31:00;;;;;;;3.42;0.52;;;11.20;99.90;;;;;;6113366;23;20020;-77
2024/03/21 08:33:27;;;;;;;6.05;0.75;;;11.20;99.90;;;;;;6114800;23;20330;-77
2024/03/21 08:35:54;;;;;;;4.60;0.60;;;11.30;99.90;;;;;;6149585;23;20005;-76
2024/03/21 08:38:20;;;;;;;5.43;0.75;;;11.30;99.90;;;;;;6149215;23;20017;-76
2024/03/21 08:40:53;;;;;;;6.55;1.15;;;11.30;99.90;;;;;;6175121;23;20387;-78
2024/03/21 08:43:20;;;;;;;6.80;1.23;;;11.40;99.90;;;;;;6137451;23;20020;-76
2024/03/21 08:45:48;;;;;;;4.53;0.70;;;11.40;99.90;;;;;;6123686;23;20009;-75
2024/03/21 08:48:15;;;;;;;2.75;0.40;;;11.40;99.90;;;;;;6147453;23;20083;-74
2024/03/21 08:50:45;;;;;;;3.30;0.40;;;11.50;99.90;;;;;;6088002;23;20016;-75
2024/03/21 08:53:12;;;;;;;4.35;0.30;;;11.60;99.90;;;;;;6174642;23;20338;-74
2024/03/21 08:55:39;;;;;;;3.63;0.47;;;11.70;99.90;;;;;;6175133;23;20023;-75
2024/03/21 08:58:05;;;;;;;2.92;0.40;;;11.90;99.90;;;;;;6089184;23;20020;-75
2024/03/21 09:00:32;;;;;;;5.07;0.50;;;12.00;99.90;;;;;;6123122;23;20005;-76
2024/03/21 09:03:00;;;;;;;7.03;0.90;;;12.20;99.90;;;;;;6112931;23;20028;-76
2024/03/21 09:05:28;;;;;;;4.55;0.50;;;12.20;99.90;;;;;;6147975;23;20012;-76
2024/03/21 09:07:55;;;;;;;4.15;0.60;;;12.20;99.90;;;;;;6114652;23;20020;-74
2024/03/21 09:10:21;;;;;;;3.80;0.77;;;12.20;99.90;;;;;;6147502;23;20883;-76
2024/03/21 09:12:48;;;;;;;7.00;0.80;;;12.20;99.90;;;;;;6137856;23;20008;-75
2024/03/21 09:15:17;;;;;;;4.40;0.80;;;12.30;99.90;;;;;;6113439;23;20561;-74
2024/03/21 09:17:44;;;;;;;6.38;0.55;;;12.30;99.90;;;;;;6124368;23;20020;-76
2024/03/21 09:20:11;;;;;;;5.57;0.70;;;12.30;99.90;;;;;;6089215;23;20009;-76
2024/03/21 09:22:38;;;;;;;5.22;0.50;;;12.30;99.90;;;;;;6138181;23;20009;-76
2024/03/21 09:25:04;;;;;;;7.82;0.80;;;12.40;99.90;;;;;;6113040;23;20449;-77
2024/03/21 09:27:32;;;;;;;4.68;0.70;;;12.50;99.90;;;;;;6174618;23;20369;-76
2024/03/21 09:29:58;;;;;;;6.97;0.75;;;12.50;99.90;;;;;;6111751;23;20013;-74
2024/03/21 09:32:25;;;;;;;3.85;0.50;;;12.60;99.90;;;;;;6149185;23;20009;-77
2024/03/21 09:34:51;;;;;;;4.35;0.93;;;12.60;99.90;;;;;;6175507;23;20016;-76
2024/03/21 09:37:19;;;;;;;3.42;0.65;;;12.70;99.90;;;;;;6113870;23;20020;-77
2024/03/21 09:39:45;;;;;;;5.63;0.73;;;12.80;99.90;;;;;;6088141;23;20012;-75
2024/03/21 09:42:21;;;;;;;2.92;0.65;;;13.00;99.90;;;;;;6148570;23;20009;-79
2024/03/21 09:44:51;;;;;;;3.42;0.55;;;13.20;99.90;;;;;;6148821;23;20012;-76
2024/03/21 09:47:20;;;;;;;4.30;0.60;;;13.40;99.90;;;;;;6124400;23;20008;-78
2024/03/21 09:49:47;;;;;;;6.70;1.35;;;13.50;99.90;;;;;;6111434;23;20012;-79
2024/03/21 09:52:14;;;;;;;2.88;0.50;;;13.60;99.90;;;;;;6089874;23;20441;-78
2024/03/21 09:54:40;;;;;;;3.55;0.40;;;13.70;99.90;;;;;;6113444;23;20009;-76
2024/03/21 09:57:12;;;;;;;5.43;0.80;;;13.80;99.90;;;;;;6173247;23;20005;-78
2024/03/21 09:59:39;;;;;;;3.58;0.70;;;13.90;99.90;;;;;;6144241;23;20021;-76
2024/03/21 10:02:15;;;;;;;2.72;0.70;;;13.90;99.90;;;;;;6168691;23;20016;-79
2024/03/21 10:04:46;;;;;;;4.03;0.70;;;13.90;99.90;;;;;;6109920;23;20205;-78
2024/03/21 10:07:16;;;;;;;3.03;0.70;;;13.90;99.90;;;;;;6171847;23;19997;-78
2024/03/21 10:09:52;;;;;;;3.78;0.60;;;14.00;99.90;;;;;;6109492;23;20036;-78
2024/03/21 10:12:19;;;;;;;3.13;0.68;;;14.10;99.90;;;;;;6145556;23;20755;-75
2024/03/21 10:14:46;;;;;;;4.65;0.77;;;14.20;99.90;;;;;;6086396;23;20016;-78
2024/03/21 10:17:13;;;;;;;4.32;0.60;;;14.20;99.90;;;;;;6110458;23;20013;-77
2024/03/21 10:19:39;;;;;;;4.88;0.93;;;14.20;99.90;;;;;;6143245;23;20013;-77
2024/03/21 10:22:05;;;;;;;3.15;0.65;;;14.20;99.90;;;;;;6145284;23;20009;-76
2024/03/21 10:24:32;;;;;;;2.85;0.60;;;14.40;99.90;;;;;;6109284;23;20017;-76
2024/03/21 10:26:58;;;;;;;5.60;1.17;;;14.60;99.90;;;;;;6110642;23;20013;-77
2024/03/21 10:29:26;;;;;;;4.60;0.80;;;14.70;99.90;;;;;;6139990;23;20450;-75
2024/03/21 10:31:55;;;;;;;6.57;1.08;;;14.60;99.90;;;;;;6134672;23;20024;-76
2024/03/21 10:34:23;;;;;;;4.47;0.80;;;14.50;99.90;;;;;;6145333;23;20067;-78
2024/03/21 10:36:50;;;;;;;3.65;0.50;;;14.40;99.90;;;;;;6144949;23;20001;-75
2024/03/21 10:39:16;;;;;;;4.50;0.70;;;14.30;99.90;;;;;;6110591;23;20020;-76
2024/03/21 10:41:44;;;;;;;5.45;0.60;;;14.60;99.90;;;;;;6134747;23;20438;-76
2024/03/21 10:44:17;;;;;;;5.30;0.73;;;14.80;99.90;;;;;;6082721;23;20012;-78
2024/03/21 10:46:46;;;;;;;3.70;0.80;;;15.20;99.90;;;;;;6145591;23;20016;-78
2024/03/21 10:49:15;;;;;;;5.70;0.63;;;15.60;99.90;;;;;;6113139;23;20571;-78
2024/03/21 10:51:49;;;;;;;4.82;0.85;;;15.90;99.90;;;;;;6172553;23;20005;-78
2024/03/21 10:54:19;;;;;;;4.90;0.77;;;16.30;99.90;;;;;;6113729;23;20009;-78
2024/03/21 10:56:46;;;;;;;4.68;0.55;;;16.70;99.90;;;;;;6148484;23;20464;-75
2024/03/21 10:59:16;;;;;;;2.95;0.80;;;16.90;99.90;;;;;;6149123;23;20017;-77
2024/03/21 11:01:44;;;;;;;2.85;0.60;;;17.00;99.90;;;;;;6171722;23;20012;-77
2024/03/21 11:04:11;;;;;;;4.50;0.50;;;17.00;99.90;;;;;;6148489;23;20012;-77
2024/03/21 11:06:43;;;;;;;5.75;0.70;;;17.20;99.90;;;;;;6089195;23;20020;-75
2024/03/21 11:09:12;;;;;;;3.30;0.50;;;17.70;99.90;;;;;;6174719;23;20009;-75
2024/03/21 11:11:38;;;;;;;6.13;0.60;;;18.00;99.90;;;;;;6113286;23;20458;-77
2024/03/21 11:14:09;;;;;;;4.13;0.90;;;18.50;99.90;;;;;;6174575;23;20016;-77
2024/03/21 11:16:37;;;;;;;3.78;0.60;;;18.70;99.90;;;;;;6114041;23;20017;-78
2024/03/21 11:19:04;;;;;;;5.57;0.65;;;18.80;99.90;;;;;;6110155;23;20009;-77
2024/03/21 11:21:31;;;;;;;5.80;0.80;;;18.60;99.90;;;;;;6145790;23;20028;-79
2024/03/21 11:23:58;;;;;;;5.07;0.80;;;18.40;99.90;;;;;;6173375;23;20001;-77
2024/03/21 11:26:24;;;;;;;4.38;0.70;;;18.30;99.90;;;;;;6112985;23;20009;-75
2024/03/21 11:28:50;;;;;;;5.28;1.05;;;18.30;99.90;;;;;;6088817;23;20346;-75
2024/03/21 11:31:21;;;;;;;1.55;0.40;;;18.30;99.90;;;;;;6172403;23;20005;-78
2024/03/21 11:33:48;;;;;;;3.67;0.50;;;18.50;99.90;;;;;;6112158;23;20012;-77
2024/03/21 11:36:19;;;;;;;3.25;0.40;;;18.60;99.90;;;;;;6147139;23;20005;-78
2024/03/21 11:38:47;;;;;;;2.97;0.50;;;19.10;99.90;;;;;;6147544;23;20016;-79
2024/03/21 11:41:21;;;;;;;2.13;0.47;;;19.30;99.90;;;;;;6110572;23;20012;-77
2024/03/21 11:43:50;;;;;;;4.78;0.73;;;19.30;99.90;;;;;;6112215;23;20013;-77
2024/03/21 11:46:16;;;;;;;3.60;0.50;;;19.10;99.90;;;;;;6122569;23;20465;-77
2024/03/21 11:48:43;;;;;;;5.10;0.60;;;19.00;99.90;;;;;;6088434;23;20849;-76
2024/03/21 11:51:15;;;;;;;3.20;0.65;;;18.80;99.90;;;;;;6086881;23;20200;-78
2024/03/21 11:53:41;;;;;;;;;;;18.40;99.90;;;;;;6146266;23;20356;-77
2024/03/21 11:56:07;;;;;;;6.72;0.77;;;18.10;99.90;;;;;;6111658;23;19915;-77
2024/03/21 11:58:34;;;;;;;3.33;0.60;;;18.30;99.90;;;;;;6168162;23;20249;-80
2024/03/21 12:01:00;;;;;;;2.45;0.60;;;18.40;99.90;;;;;;6145151;23;20005;-77
2024/03/21 12:03:27;;;;;;;4.38;0.60;;;18.60;99.90;;;;;;6164735;23;19997;-77
2024/03/21 12:05:53;;;;;;;6.45;0.90;;;18.90;99.90;;;;;;6174335;23;20452;-78
2024/03/21 12:08:20;;;;;;;4.72;1.50;;;19.30;99.90;;;;;;6124373;23;20001;-76
2024/03/21 12:10:46;;;;;;;2.90;0.80;;;19.90;99.90;;;;;;6137181;23;20489;-77
2024/03/21 12:13:12;;;;;;;6.88;1.83;;;20.40;99.90;;;;;;6114818;23;19996;-74
2024/03/21 12:15:39;;;;;;;3.17;0.77;;;20.60;99.00;;;;;;6149956;23;20445;-76
2024/03/21 12:18:05;;;;;;;2.72;0.60;;;20.90;98.30;;;;;;6140662;23;20464;-76
2024/03/21 12:20:32;;;;;;;4.85;1.02;;;21.10;98.00;;;;;;6090230;23;20434;-76
2024/03/21 12:22:58;;;;;;;5.00;0.88;;;21.30;97.90;;;;;;6115560;23;20028;-77
2024/03/21 12:25:25;;;;;;;3.00;0.70;;;21.50;97.40;;;;;;6149849;23;20441;-76
2024/03/21 12:27:52;;;;;;;5.93;0.55;;;21.80;97.20;;;;;;6150146;23;20021;-77
2024/03/21 12:30:19;;;;;;;2.97;0.50;;;22.00;96.70;;;;;;6115248;23;20008;-79
2024/03/21 12:32:45;;;;;;;2.90;0.57;;;22.40;96.50;;;;;;6115393;23;20016;-76
2024/03/21 12:35:11;;;;;;;3.13;0.60;;;22.80;95.70;;;;;;6114750;23;20009;-76
2024/03/21 12:37:40;;;;;;;4.47;0.70;;;22.40;94.40;;;;;;6116682;23;20050;-76
2024/03/21 12:40:07;;;;;;;3.22;0.60;;;21.60;94.10;;;;;;6174762;23;20574;-76
2024/03/21 12:42:33;;;;;;;2.55;0.40;;;20.80;94.40;;;;;;6138380;23;20016;-76